createdAt,value
2019-04-21T00:00:37.421Z,85.60
2019-04-21T00:03:09.923Z,86.70
2019-04-21T00:05:57.563Z,87.70
2019-04-21T00:08:33.415Z,88.10
2019-04-21T00:11:01.136Z,86.80
2019-04-21T00:13:19.004Z,81.00
2019-04-21T00:15:44.198Z,80.90
2019-04-21T00:18:23.382Z,80.30
2019-04-21T00:20:56.263Z,78.80
2019-04-21T00:23:41.234Z,81.50
2019-04-21T00:26:03.015Z,77.50
2019-04-21T00:28:55.368Z,80.90
2019-04-21T00:31:12.380Z,80.10
2019-04-21T00:33:28.203Z,78.90
2019-04-21T00:36:02.056Z,79.20
2019-04-21T00:38:50.757Z,78.50
2019-04-21T00:41:13.757Z,79.40
2019-04-21T00:43:38.799Z,82.30
2019-04-21T00:46:04.731Z,84.50
2019-04-21T00:48:42.393Z,84.60
2019-04-21T00:53:59.558Z,79.30
2019-04-21T00:56:27.478Z,80.40
2019-04-21T00:58:59.849Z,74.10
2019-04-21T01:01:26.639Z,73.30
2019-04-21T01:03:57.735Z,74.80
2019-04-21T01:06:33.720Z,75.20
2019-04-21T01:08:55.095Z,73.30
2019-04-21T01:11:29.828Z,72.30
2019-04-21T01:14:00.643Z,74.80
2019-04-21T01:16:27.068Z,75.20
2019-04-21T01:18:55.251Z,75.60
2019-04-21T01:21:13.597Z,76.20
2019-04-21T01:23:34.070Z,75.40
2019-04-21T01:26:21.278Z,67.00
2019-04-21T01:28:49.507Z,66.80
2019-04-21T01:31:17.351Z,66.30
2019-04-21T01:33:59.247Z,64.80
2019-04-21T01:36:19.702Z,64.90
2019-04-21T01:38:59.252Z,63.80
2019-04-21T01:41:25.450Z,63.90
2019-04-21T01:43:50.303Z,64.60
2019-04-21T01:46:19.517Z,63.50
2019-04-21T01:48:49.453Z,64.30
2019-04-21T01:51:18.125Z,64.10
2019-04-21T01:54:14.665Z,63.70
2019-04-21T01:57:04.392Z,65.00
2019-04-21T01:59:26.821Z,65.50
2019-04-21T02:02:06.207Z,68.10
2019-04-21T02:04:37.200Z,65.00
2019-04-21T02:07:03.163Z,68.10
2019-04-21T02:09:38.373Z,69.10
2019-04-21T02:12:08.689Z,64.50
2019-04-21T02:14:39.309Z,66.90
2019-04-21T02:17:07.209Z,69.80
2019-04-21T02:19:31.229Z,68.20
2019-04-21T02:21:59.275Z,69.70
2019-04-21T02:24:42.719Z,71.00
2019-04-21T02:27:07.046Z,70.70
2019-04-21T02:29:41.158Z,71.60
2019-04-21T02:32:14.577Z,70.20
2019-04-21T02:34:49.082Z,70.10
2019-04-21T02:39:49.044Z,62.20
2019-04-21T02:44:56.928Z,60.00
2019-04-21T02:49:55.356Z,59.80
2019-04-21T02:52:23.749Z,59.50
2019-04-21T02:55:02.352Z,59.30
2019-04-21T02:57:34.631Z,59.30
2019-04-21T02:59:58.266Z,60.20
2019-04-21T03:02:35.013Z,58.90
2019-04-21T03:05:02.313Z,59.90
2019-04-21T03:07:44.292Z,58.90
2019-04-21T03:10:09.003Z,59.20
2019-04-21T03:12:28.662Z,58.80
2019-04-21T03:17:43.634Z,58.70
2019-04-21T03:30:26.261Z,58.70
2019-04-21T03:33:16.628Z,58.30
2019-04-21T03:45:06.686Z,58.70
2019-04-21T03:50:22.634Z,58.90
2019-04-21T03:52:38.847Z,57.70
2019-04-21T04:06:03.514Z,59.30
2019-04-21T04:08:44.779Z,59.50
2019-04-21T04:13:39.160Z,58.40
2019-04-21T04:16:08.323Z,58.60
2019-04-21T04:18:44.582Z,57.00
2019-04-21T04:21:07.572Z,56.10
2019-04-21T04:23:37.509Z,56.60
2019-04-21T04:25:59.174Z,56.30
2019-04-21T04:28:39.931Z,55.90
2019-04-21T04:33:41.775Z,54.50
2019-04-21T04:38:39.599Z,56.40
2019-04-21T04:41:12.190Z,56.30
2019-04-21T04:46:01.618Z,55.00
2019-04-21T04:48:28.856Z,54.70
2019-04-21T04:53:42.667Z,54.10
2019-04-21T04:56:08.309Z,54.30
2019-04-21T04:58:54.605Z,55.30
2019-04-21T05:03:44.296Z,53.80
2019-04-21T05:11:39.837Z,53.50
2019-04-21T05:13:57.834Z,53.40
2019-04-21T05:16:38.459Z,52.20
2019-04-21T05:19:06.442Z,50.70
2019-04-21T05:21:30.276Z,50.30
2019-04-21T05:23:44.159Z,49.80
2019-04-21T05:26:08.076Z,49.10
2019-04-21T05:28:37.344Z,48.10
2019-04-21T05:31:19.600Z,47.10
2019-04-21T05:33:55.507Z,48.20
2019-04-21T05:36:24.349Z,48.90
2019-04-21T05:38:49.242Z,50.40
2019-04-21T05:41:15.650Z,47.60
2019-04-21T05:43:57.518Z,43.60
2019-04-21T05:46:25.203Z,45.40
2019-04-21T05:49:02.890Z,46.00
2019-04-21T05:51:30.515Z,47.80
2019-04-21T05:54:21.374Z,47.30
2019-04-21T05:56:37.906Z,48.30
2019-04-21T05:59:08.964Z,48.70
2019-04-21T06:01:39.338Z,48.70
2019-04-21T06:04:15.634Z,50.30
2019-04-21T06:06:40.846Z,50.70
2019-04-21T06:09:08.272Z,51.30
2019-04-21T06:11:36.263Z,52.40
2019-04-21T06:14:12.421Z,51.90
2019-04-21T06:16:43.091Z,51.20
2019-04-21T06:19:17.150Z,50.00
2019-04-21T06:21:38.855Z,47.80
2019-04-21T06:24:12.699Z,48.70
2019-04-21T06:26:54.890Z,48.80
2019-04-21T06:29:13.463Z,48.70
2019-04-21T06:34:11.205Z,45.50
2019-04-21T06:36:46.987Z,42.60
2019-04-21T06:39:28.327Z,40.60
2019-04-21T06:41:49.091Z,38.20
2019-04-21T06:46:44.728Z,39.70
2019-04-21T06:49:18.773Z,38.30
2019-04-21T06:51:43.330Z,39.30
2019-04-21T06:54:14.720Z,39.30
2019-04-21T06:56:45.106Z,35.70
2019-04-21T06:59:17.043Z,32.50
2019-04-21T07:01:52.720Z,30.20
2019-04-21T07:04:29.556Z,31.80
2019-04-21T07:06:48.169Z,32.70
2019-04-21T07:09:22.452Z,39.20
2019-04-21T07:11:43.920Z,41.70
2019-04-21T07:16:53.065Z,37.00
2019-04-21T07:19:27.850Z,34.20
2019-04-21T07:21:50.151Z,33.80
2019-04-21T07:24:22.728Z,38.60
2019-04-21T07:26:51.542Z,41.50
2019-04-21T07:29:22.071Z,41.50
2019-04-21T07:31:55.885Z,39.10
2019-04-21T07:34:21.653Z,36.20
2019-04-21T07:37:01.011Z,35.30
2019-04-21T07:39:15.284Z,35.50
2019-04-21T07:41:46.918Z,38.30
2019-04-21T07:44:10.318Z,33.50
2019-04-21T07:46:38.511Z,33.10
2019-04-21T07:49:12.483Z,36.70
2019-04-21T07:51:50.611Z,35.00
2019-04-21T07:54:23.734Z,30.30
2019-04-21T07:56:34.868Z,27.40
2019-04-21T07:59:23.857Z,34.10
2019-04-21T08:01:50.395Z,39.70
2019-04-21T08:04:39.314Z,40.20
2019-04-21T08:09:18.259Z,34.20
2019-04-21T08:11:44.268Z,33.30
2019-04-21T08:14:17.014Z,37.60
2019-04-21T08:16:53.994Z,32.60
2019-04-21T08:19:22.152Z,27.90
2019-04-21T08:21:49.639Z,30.50
2019-04-21T08:24:21.551Z,30.30
2019-04-21T08:26:51.039Z,33.20
2019-04-21T08:29:25.703Z,31.20
2019-04-21T08:31:56.149Z,30.20
2019-04-21T08:34:21.647Z,28.40
2019-04-21T08:37:03.975Z,32.50
2019-04-21T08:39:20.011Z,33.60
2019-04-21T08:41:51.098Z,35.00
2019-04-21T08:44:20.929Z,33.90
2019-04-21T08:46:55.595Z,36.30
2019-04-21T08:49:20.370Z,34.00
2019-04-21T08:51:54.934Z,30.50
2019-04-21T08:54:24.444Z,31.90
2019-04-21T08:56:55.912Z,29.80
2019-04-21T08:59:43.518Z,35.30
2019-04-21T09:02:29.481Z,37.70
2019-04-21T09:04:58.306Z,35.50
2019-04-21T09:07:36.159Z,34.70
2019-04-21T09:09:57.757Z,34.90
2019-04-21T09:12:33.122Z,34.10
2019-04-21T09:14:59.829Z,35.70
2019-04-21T09:17:22.104Z,36.50
2019-04-21T09:20:10.639Z,35.00
2019-04-21T09:22:30.803Z,35.40
2019-04-21T09:25:00.206Z,32.70
2019-04-21T09:27:27.846Z,31.00
2019-04-21T09:29:49.486Z,28.30
2019-04-21T09:32:16.638Z,25.80
2019-04-21T09:34:43.549Z,25.50
2019-04-21T09:37:24.325Z,28.50
2019-04-21T09:39:45.012Z,31.90
2019-04-21T09:42:11.415Z,32.20
2019-04-21T09:44:43.606Z,29.10
2019-04-21T09:47:11.043Z,26.50
2019-04-21T09:49:41.517Z,25.70
2019-04-21T09:52:16.111Z,29.10
2019-04-21T09:54:48.201Z,29.60
2019-04-21T09:57:24.294Z,28.40
2019-04-21T09:59:47.610Z,26.40
2019-04-21T10:02:18.210Z,25.20
2019-04-21T10:04:42.444Z,27.80
2019-04-21T10:07:23.360Z,30.90
2019-04-21T10:09:41.810Z,34.40
2019-04-21T10:12:11.815Z,36.20
2019-04-21T10:14:40.942Z,40.10
2019-04-21T10:17:23.934Z,41.50
2019-04-21T10:19:52.966Z,41.70
2019-04-21T10:22:21.611Z,41.90
2019-04-21T10:24:50.597Z,41.30
2019-04-21T10:27:19.200Z,41.80
2019-04-21T10:29:49.071Z,42.90
2019-04-21T10:32:20.136Z,41.90
2019-04-21T10:34:49.469Z,41.50
2019-04-21T10:37:18.893Z,38.40
2019-04-21T10:39:47.611Z,38.90
2019-04-21T10:42:17.373Z,39.70
2019-04-21T10:44:47.211Z,40.60
2019-04-21T10:47:16.601Z,39.90
2019-04-21T10:49:44.846Z,39.90
2019-04-21T10:52:15.311Z,41.00
2019-04-21T10:55:08.302Z,41.70
2019-04-21T10:57:16.717Z,41.40
2019-04-21T10:59:47.862Z,42.10
2019-04-21T11:02:34.878Z,41.60
2019-04-21T11:05:04.829Z,41.90
2019-04-21T11:07:57.577Z,41.80
2019-04-21T11:10:16.159Z,41.50
2019-04-21T11:12:47.533Z,41.70
2019-04-21T11:15:15.250Z,42.20
2019-04-21T11:17:45.127Z,42.30
2019-04-21T11:20:15.059Z,43.20
2019-04-21T11:22:43.917Z,43.80
2019-04-21T11:25:12.895Z,44.20
2019-04-21T11:27:42.899Z,44.30
2019-04-21T11:30:11.980Z,44.30
2019-04-21T11:32:42.117Z,43.50
2019-04-21T11:35:11.011Z,43.40
2019-04-21T11:37:39.934Z,42.90
2019-04-21T11:40:12.266Z,41.30
2019-04-21T11:42:41.889Z,41.80
2019-04-21T11:45:14.663Z,41.20
2019-04-21T11:48:01.116Z,41.60
2019-04-21T11:50:30.922Z,43.10
2019-04-21T11:53:01.054Z,44.30
2019-04-21T11:55:34.367Z,43.80
2019-04-21T11:58:00.307Z,44.30
2019-04-21T12:00:29.505Z,44.70
2019-04-21T12:02:59.510Z,44.40
2019-04-21T12:05:29.669Z,44.60
2019-04-21T12:07:58.916Z,44.70
2019-04-21T12:10:29.258Z,44.70
2019-04-21T12:12:59.229Z,45.10
2019-04-21T12:15:29.100Z,45.10
2019-04-21T12:17:58.043Z,45.70
2019-04-21T12:20:26.766Z,45.30
2019-04-21T12:22:55.419Z,44.80
2019-04-21T12:25:38.939Z,44.30
2019-04-21T12:28:07.896Z,43.60
2019-04-21T12:30:37.771Z,43.60
2019-04-21T12:33:08.186Z,43.60
2019-04-21T12:35:37.777Z,44.60
2019-04-21T12:38:06.723Z,44.90
2019-04-21T12:40:36.687Z,44.80
2019-04-21T12:43:06.482Z,45.00
2019-04-21T12:45:35.945Z,45.00
2019-04-21T12:48:06.065Z,43.70
2019-04-21T12:50:35.998Z,43.20
2019-04-21T12:53:05.368Z,42.90
2019-04-21T12:55:37.440Z,43.30
2019-04-21T12:58:03.732Z,43.20
2019-04-21T13:00:33.365Z,43.60
2019-04-21T13:03:02.035Z,43.40
2019-04-21T13:05:31.638Z,43.40
2019-04-21T13:08:01.518Z,44.90
2019-04-21T13:10:30.681Z,44.80
2019-04-21T13:12:59.768Z,45.00
2019-04-21T13:15:29.335Z,45.00
2019-04-21T13:17:58.486Z,44.30
2019-04-21T13:20:27.562Z,44.10
2019-04-21T13:22:57.692Z,44.50
2019-04-21T13:25:27.697Z,44.90
2019-04-21T13:27:56.525Z,44.50
2019-04-21T13:30:26.377Z,45.40
2019-04-21T13:32:55.477Z,44.60
2019-04-21T13:35:24.367Z,44.70
2019-04-21T13:37:54.258Z,44.10
2019-04-21T13:40:57.017Z,44.20
2019-04-21T13:43:12.462Z,44.30
2019-04-21T13:45:41.566Z,44.40
2019-04-21T13:48:10.563Z,44.10
2019-04-21T13:50:39.538Z,44.10
2019-04-21T13:53:09.019Z,44.40
2019-04-21T13:55:38.944Z,44.30
2019-04-21T13:58:10.412Z,44.30
2019-04-21T14:00:39.971Z,44.30
2019-04-21T14:03:10.283Z,44.70
2019-04-21T14:05:40.243Z,43.80
2019-04-21T14:08:11.282Z,43.90
2019-04-21T14:10:39.989Z,43.70
2019-04-21T14:13:08.717Z,43.50
2019-04-21T14:15:37.822Z,43.00
2019-04-21T14:18:06.916Z,42.80
2019-04-21T14:20:35.595Z,42.60
2019-04-21T14:23:15.847Z,43.00
2019-04-21T14:25:35.485Z,42.60
2019-04-21T14:28:04.372Z,42.10
2019-04-21T14:30:34.624Z,42.00
2019-04-21T14:33:04.442Z,42.40
2019-04-21T14:35:34.700Z,40.50
2019-04-21T14:38:04.748Z,40.30
2019-04-21T14:40:35.542Z,40.20
2019-04-21T14:43:05.831Z,39.40
2019-04-21T14:45:38.847Z,39.70
2019-04-21T14:48:25.589Z,39.70
2019-04-21T14:51:13.185Z,39.10
2019-04-21T14:53:43.659Z,38.90
2019-04-21T14:56:13.254Z,39.20
2019-04-21T14:58:43.214Z,39.30
2019-04-21T15:01:12.021Z,39.20
2019-04-21T15:03:41.698Z,39.30
2019-04-21T15:06:11.617Z,39.50
2019-04-21T15:08:40.316Z,39.70
2019-04-21T15:11:09.652Z,39.60
2019-04-21T15:13:39.667Z,39.70
2019-04-21T15:16:08.961Z,39.90
2019-04-21T15:18:38.870Z,39.70
2019-04-21T15:21:07.816Z,39.30
2019-04-21T15:23:36.579Z,39.20
2019-04-21T15:26:06.081Z,38.80
2019-04-21T15:28:37.247Z,38.70
2019-04-21T15:31:05.194Z,38.80
2019-04-21T15:33:34.947Z,38.50
2019-04-21T15:36:05.099Z,38.60
2019-04-21T15:38:33.981Z,38.00
2019-04-21T15:41:06.428Z,37.80
2019-04-21T15:43:33.536Z,37.80
2019-04-21T15:46:02.613Z,37.70
2019-04-21T15:48:31.301Z,37.90
2019-04-21T15:51:03.677Z,38.20
2019-04-21T15:53:32.026Z,38.50
2019-04-21T15:56:18.686Z,38.90
2019-04-21T15:58:54.891Z,38.90
2019-04-21T16:01:32.449Z,41.10
2019-04-21T16:04:02.855Z,42.70
2019-04-21T16:06:32.035Z,43.10
2019-04-21T16:09:02.508Z,43.60
2019-04-21T16:11:31.604Z,43.60
2019-04-21T16:13:59.687Z,43.70
2019-04-21T16:16:30.502Z,44.10
2019-04-21T16:18:58.669Z,44.00
2019-04-21T16:21:27.299Z,44.50
2019-04-21T16:23:56.453Z,45.10
2019-04-21T16:26:26.732Z,45.70
2019-04-21T16:28:55.635Z,46.50
2019-04-21T16:31:24.735Z,47.20
2019-04-21T16:33:54.710Z,47.60
2019-04-21T16:36:23.510Z,48.20
2019-04-21T16:38:53.479Z,48.60
2019-04-21T16:41:22.487Z,48.90
2019-04-21T16:43:51.415Z,49.20
2019-04-21T16:46:21.121Z,49.40
2019-04-21T16:48:49.804Z,49.90
2019-04-21T16:51:18.366Z,50.10
2019-04-21T16:53:48.557Z,50.70
2019-04-21T16:56:24.856Z,51.20
2019-04-21T16:58:55.147Z,51.80
2019-04-21T17:01:31.855Z,52.40
2019-04-21T17:04:02.230Z,52.70
2019-04-21T17:06:31.223Z,52.90
2019-04-21T17:09:00.962Z,53.30
2019-04-21T17:11:34.696Z,53.60
2019-04-21T17:14:00.547Z,53.70
2019-04-21T17:17:00.329Z,53.90
2019-04-21T17:19:12.789Z,54.10
2019-04-21T17:21:30.225Z,54.20
2019-04-21T17:23:59.151Z,54.50
2019-04-21T17:26:29.054Z,54.90
2019-04-21T17:28:58.743Z,55.20
2019-04-21T17:31:28.783Z,55.20
2019-04-21T17:34:06.349Z,55.40
2019-04-21T17:36:29.328Z,56.50
2019-04-21T17:38:59.977Z,56.10
2019-04-21T17:41:36.453Z,56.00
2019-04-21T17:44:00.372Z,56.50
2019-04-21T17:46:38.609Z,56.80
2019-04-21T17:49:01.026Z,57.00
2019-04-21T17:51:31.978Z,57.10
2019-04-21T17:54:13.576Z,57.50
2019-04-21T17:57:00.464Z,57.70
2019-04-21T17:59:43.115Z,58.00
2019-04-21T18:01:54.673Z,58.20
2019-04-21T18:04:29.249Z,58.40
2019-04-21T18:06:59.628Z,58.40
2019-04-21T18:09:44.108Z,58.70
2019-04-21T18:12:06.877Z,59.00
2019-04-21T18:14:15.816Z,59.60
2019-04-21T18:16:47.871Z,59.90
2019-04-21T18:19:15.208Z,59.50
2019-04-21T18:21:51.394Z,59.50
2019-04-21T18:24:22.438Z,59.70
2019-04-21T18:26:55.418Z,59.80
2019-04-21T18:29:19.586Z,60.70
2019-04-21T18:31:50.440Z,61.00
2019-04-21T18:34:31.030Z,61.50
2019-04-21T18:37:10.728Z,61.50
2019-04-21T18:40:02.415Z,61.40
2019-04-21T18:42:57.473Z,61.30
2019-04-21T18:45:47.932Z,61.60
2019-04-21T18:48:18.942Z,61.80
2019-04-21T18:50:50.704Z,62.20
2019-04-21T18:53:44.830Z,62.20
2019-04-21T18:56:07.430Z,62.20
2019-04-21T18:58:32.955Z,62.60
2019-04-21T19:01:07.555Z,62.90
2019-04-21T19:03:39.678Z,63.40
2019-04-21T19:06:10.779Z,63.70
2019-04-21T19:08:56.154Z,64.00
2019-04-21T19:11:25.434Z,64.50
2019-04-21T19:14:22.515Z,64.80
2019-04-21T19:16:43.156Z,65.10
2019-04-21T19:21:33.513Z,65.60
2019-04-21T19:24:18.589Z,66.10
2019-04-21T19:26:46.552Z,66.10
2019-04-21T19:29:22.231Z,66.70
2019-04-21T19:31:44.440Z,66.70
2019-04-21T19:34:02.079Z,66.50
2019-04-21T19:36:23.667Z,67.20
2019-04-21T19:39:03.485Z,67.20
2019-04-21T19:41:38.250Z,67.40
2019-04-21T19:44:12.880Z,67.30
2019-04-21T19:46:40.331Z,68.40
2019-04-21T19:49:18.308Z,68.10
2019-04-21T19:51:36.467Z,68.30
2019-04-21T19:54:03.765Z,68.60
2019-04-21T19:56:25.856Z,68.10
2019-04-21T19:58:55.007Z,69.00
2019-04-21T20:01:23.677Z,68.80
2019-04-21T20:03:57.198Z,69.60
2019-04-21T20:06:44.102Z,70.60
2019-04-21T20:09:12.217Z,71.10
2019-04-21T20:11:37.221Z,71.60
2019-04-21T20:14:37.605Z,72.30
2019-04-21T20:16:46.900Z,73.00
2019-04-21T20:19:00.352Z,72.70
2019-04-21T20:21:24.889Z,73.20
2019-04-21T20:23:57.505Z,73.20
2019-04-21T20:26:30.506Z,73.10
2019-04-21T20:29:05.553Z,73.10
2019-04-21T20:31:39.740Z,72.90
2019-04-21T20:34:30.528Z,73.00
2019-04-21T20:36:51.083Z,72.30
2019-04-21T20:39:05.461Z,73.20
2019-04-21T20:41:37.976Z,73.40
2019-04-21T20:44:17.287Z,74.00
2019-04-21T20:46:38.648Z,72.00
2019-04-21T20:49:09.741Z,73.10
2019-04-21T20:51:41.797Z,73.20
2019-04-21T20:54:16.111Z,73.60
2019-04-21T20:56:45.237Z,70.50
2019-04-21T20:59:12.169Z,69.50
2019-04-21T21:01:43.221Z,70.70
2019-04-21T21:04:12.474Z,69.20
2019-04-21T21:06:44.536Z,68.80
2019-04-21T21:09:14.588Z,70.40
2019-04-21T21:11:56.872Z,65.90
2019-04-21T21:14:16.116Z,63.70
2019-04-21T21:16:50.740Z,64.90
2019-04-21T21:19:22.058Z,68.70
2019-04-21T21:21:45.772Z,69.70
2019-04-21T21:24:15.101Z,70.10
2019-04-21T21:26:48.628Z,67.20
2019-04-21T21:29:22.833Z,68.90
2019-04-21T21:31:50.668Z,68.00
2019-04-21T21:34:23.130Z,65.70
2019-04-21T21:36:47.735Z,64.80
2019-04-21T21:39:24.995Z,64.00
2019-04-21T21:41:38.572Z,64.50
2019-04-21T21:44:10.554Z,63.00
2019-04-21T21:46:48.673Z,63.20
2019-04-21T21:49:20.733Z,59.90
2019-04-21T21:51:48.416Z,61.50
2019-04-21T21:54:05.509Z,60.90
2019-04-21T21:56:34.394Z,60.20
2019-04-21T21:59:10.569Z,59.50
2019-04-21T22:01:39.917Z,62.60
2019-04-21T22:04:10.955Z,58.90
2019-04-21T22:06:43.349Z,60.30
2019-04-21T22:09:10.301Z,61.80
2019-04-21T22:11:40.169Z,63.10
2019-04-21T22:14:12.167Z,63.70
2019-04-21T22:16:49.443Z,63.60
2019-04-21T22:19:29.987Z,63.00
2019-04-21T22:22:01.009Z,61.10
2019-04-21T22:24:27.894Z,63.30
2019-04-21T22:26:41.054Z,63.50
2019-04-21T22:29:09.794Z,61.70
2019-04-21T22:31:40.702Z,64.90
2019-04-21T22:34:12.248Z,65.00
2019-04-21T22:36:52.764Z,64.40
2019-04-21T22:39:30.672Z,65.80
2019-04-21T22:41:46.621Z,66.50
2019-04-21T22:44:16.854Z,66.70
2019-04-21T22:46:58.632Z,63.70
2019-04-21T22:49:17.922Z,66.50
2019-04-21T22:51:49.988Z,68.50
2019-04-21T22:54:22.214Z,66.80
2019-04-21T22:56:56.579Z,67.90
2019-04-21T22:59:20.997Z,67.40
2019-04-21T23:01:50.443Z,66.10
2019-04-21T23:04:18.036Z,66.90
2019-04-21T23:06:48.783Z,66.00
2019-04-21T23:09:17.042Z,65.90
2019-04-21T23:11:50.520Z,64.60
2019-04-21T23:14:18.869Z,66.60
2019-04-21T23:16:50.658Z,65.60
2019-04-21T23:19:32.391Z,65.70
2019-04-21T23:22:03.817Z,66.30
2019-04-21T23:24:40.412Z,65.30
2019-04-21T23:27:05.703Z,66.00
2019-04-21T23:29:51.019Z,67.50
2019-04-21T23:32:06.342Z,64.50
2019-04-21T23:34:25.149Z,65.80
2019-04-21T23:36:57.638Z,65.40
2019-04-21T23:39:26.548Z,64.30
2019-04-21T23:41:53.950Z,65.00
2019-04-21T23:44:22.220Z,67.20
2019-04-21T23:46:54.665Z,67.10
2019-04-21T23:49:34.273Z,67.10
2019-04-21T23:51:59.120Z,66.00
2019-04-21T23:54:23.004Z,65.70
2019-04-21T23:56:51.954Z,66.70
2019-04-21T23:59:20.654Z,66.40
